createdAt,value
2018-11-05T00:02:13.690Z,12.60
2018-11-05T00:04:47.743Z,12.60
2018-11-05T00:07:22.585Z,13.00
2018-11-05T00:09:56.521Z,13.00
2018-11-05T00:12:30.599Z,12.90
2018-11-05T00:15:04.739Z,13.00
2018-11-05T00:17:39.592Z,13.00
2018-11-05T00:20:13.649Z,13.00
2018-11-05T00:22:47.715Z,12.90
2018-11-05T00:25:21.738Z,12.80
2018-11-05T00:27:56.426Z,12.60
2018-11-05T00:30:30.535Z,12.50
2018-11-05T00:33:05.359Z,13.10
2018-11-05T00:35:39.258Z,13.10
2018-11-05T00:38:13.407Z,12.90
2018-11-05T00:40:47.514Z,12.70
2018-11-05T00:43:21.615Z,12.80
2018-11-05T00:45:55.657Z,12.80
2018-11-05T00:48:29.710Z,12.70
2018-11-05T00:51:03.873Z,12.70
2018-11-05T00:53:37.938Z,12.80
2018-11-05T00:56:12.003Z,12.90
2018-11-05T00:58:46.066Z,12.80
2018-11-05T01:01:20.086Z,12.70
2018-11-05T01:03:54.211Z,12.60
2018-11-05T01:06:28.316Z,12.50
2018-11-05T01:09:02.431Z,12.50
2018-11-05T01:11:36.528Z,12.60
2018-11-05T01:14:10.566Z,12.70
2018-11-05T01:16:44.599Z,12.70
2018-11-05T01:19:18.657Z,12.70
2018-11-05T01:21:52.704Z,12.80
2018-11-05T01:24:26.617Z,12.60
2018-11-05T01:27:00.713Z,12.50
2018-11-05T01:29:34.685Z,12.70
2018-11-05T01:32:08.720Z,12.70
2018-11-05T01:34:42.766Z,12.60
2018-11-05T01:37:16.850Z,12.50
2018-11-05T01:39:50.838Z,12.50
2018-11-05T01:42:25.681Z,12.50
2018-11-05T01:44:59.594Z,12.40
2018-11-05T01:47:33.681Z,12.50
2018-11-05T01:50:07.577Z,12.60
2018-11-05T01:52:41.643Z,12.70
2018-11-05T01:55:15.764Z,12.70
2018-11-05T01:57:49.777Z,12.50
2018-11-05T02:00:23.869Z,12.40
2018-11-05T02:02:57.990Z,12.40
2018-11-05T02:05:32.050Z,12.30
2018-11-05T02:08:06.108Z,12.30
2018-11-05T02:10:40.166Z,12.30
2018-11-05T02:13:14.247Z,12.50
2018-11-05T02:15:48.316Z,12.50
2018-11-05T02:18:22.356Z,12.50
2018-11-05T02:20:56.494Z,12.70
2018-11-05T02:23:30.607Z,13.00
2018-11-05T02:26:04.573Z,13.10
2018-11-05T02:28:38.636Z,13.20
2018-11-05T02:31:12.527Z,13.10
2018-11-05T02:33:46.554Z,12.80
2018-11-05T02:36:20.485Z,12.80
2018-11-05T02:38:54.575Z,13.00
2018-11-05T02:41:28.683Z,13.00
2018-11-05T02:44:02.728Z,13.00
2018-11-05T02:46:36.809Z,13.00
2018-11-05T02:49:10.865Z,13.00
2018-11-05T02:51:44.875Z,12.80
2018-11-05T02:54:18.937Z,12.70
2018-11-05T02:56:53.072Z,13.00
2018-11-05T02:59:27.103Z,13.00
2018-11-05T03:02:01.182Z,12.90
2018-11-05T03:04:35.168Z,12.90
2018-11-05T03:07:09.069Z,13.00
2018-11-05T03:09:43.101Z,12.90
2018-11-05T03:12:17.237Z,12.80
2018-11-05T03:14:51.883Z,12.80
2018-11-05T03:17:25.998Z,12.80
2018-11-05T03:20:00.000Z,12.80
2018-11-05T03:22:34.112Z,12.90
2018-11-05T03:25:08.139Z,12.90
2018-11-05T03:27:42.225Z,13.10
2018-11-05T03:30:16.322Z,13.20
2018-11-05T03:32:50.335Z,13.20
2018-11-05T03:35:24.458Z,13.20
2018-11-05T03:37:58.527Z,13.10
2018-11-05T03:40:32.597Z,13.10
2018-11-05T03:43:06.655Z,13.30
2018-11-05T03:45:40.786Z,13.40
2018-11-05T03:48:14.910Z,13.50
2018-11-05T03:54:16.590Z,13.50
2018-11-05T03:56:50.769Z,13.40
2018-11-05T03:59:24.618Z,13.30
2018-11-05T04:01:58.608Z,13.20
2018-11-05T04:04:33.434Z,13.30
2018-11-05T04:07:07.407Z,13.30
2018-11-05T04:09:41.445Z,13.40
2018-11-05T04:12:15.484Z,13.50
2018-11-05T04:14:49.479Z,13.50
2018-11-05T04:17:23.474Z,13.30
2018-11-05T04:19:57.511Z,13.10
2018-11-05T04:22:31.594Z,13.10
2018-11-05T04:25:05.614Z,13.20
2018-11-05T04:27:39.618Z,13.30
2018-11-05T04:30:13.670Z,13.40
2018-11-05T04:32:48.011Z,13.10
2018-11-05T04:35:21.902Z,13.10
2018-11-05T04:37:56.039Z,13.10
2018-11-05T04:40:30.747Z,13.30
2018-11-05T04:43:04.824Z,13.20
2018-11-05T04:45:38.893Z,13.40
2018-11-05T04:48:12.813Z,13.40
2018-11-05T04:50:46.919Z,13.40
2018-11-05T04:53:20.802Z,13.10
2018-11-05T04:55:54.845Z,13.20
2018-11-05T04:58:32.556Z,13.40
2018-11-05T05:01:06.653Z,13.50
2018-11-05T05:03:40.740Z,13.50
2018-11-05T05:06:14.783Z,13.50
2018-11-05T05:08:48.886Z,13.10
2018-11-05T05:11:22.975Z,13.00
2018-11-05T05:13:57.106Z,13.00
2018-11-05T05:16:31.231Z,13.10
2018-11-05T05:19:05.347Z,12.90
2018-11-05T05:21:39.412Z,12.90
2018-11-05T05:24:13.449Z,12.60
2018-11-05T05:26:48.285Z,12.60
2018-11-05T05:29:22.291Z,12.60
2018-11-05T05:31:57.043Z,12.70
2018-11-05T05:34:31.112Z,12.80
2018-11-05T05:37:05.125Z,12.70
2018-11-05T05:39:39.171Z,12.70
2018-11-05T05:42:13.251Z,12.70
2018-11-05T05:44:47.365Z,12.70
2018-11-05T05:47:21.499Z,12.70
2018-11-05T05:49:56.399Z,12.80
2018-11-05T05:52:30.472Z,12.70
2018-11-05T05:55:04.659Z,12.70
2018-11-05T05:57:38.599Z,12.80
2018-11-05T06:00:13.397Z,12.80
2018-11-05T06:02:47.422Z,12.80
2018-11-05T06:05:21.523Z,13.00
2018-11-05T06:07:55.556Z,13.20
2018-11-05T06:10:29.644Z,13.30
2018-11-05T06:13:03.789Z,13.10
2018-11-05T06:15:37.865Z,12.90
2018-11-05T06:18:11.819Z,13.00
2018-11-05T06:20:45.884Z,13.00
2018-11-05T06:23:19.899Z,12.80
2018-11-05T06:25:54.756Z,12.70
2018-11-05T06:28:28.904Z,12.60
2018-11-05T06:31:02.907Z,13.00
2018-11-05T06:33:37.666Z,13.00
2018-11-05T06:36:12.348Z,12.80
2018-11-05T06:38:46.559Z,12.80
2018-11-05T06:41:20.758Z,12.80
2018-11-05T06:43:55.489Z,12.70
2018-11-05T06:46:29.578Z,12.70
2018-11-05T06:49:04.851Z,12.80
2018-11-05T06:51:38.952Z,12.90
2018-11-05T06:54:13.099Z,13.00
2018-11-05T06:56:47.896Z,12.70
2018-11-05T06:59:21.985Z,12.80
2018-11-05T07:01:56.136Z,12.80
2018-11-05T07:04:30.161Z,12.80
2018-11-05T07:07:04.245Z,12.90
2018-11-05T07:09:38.992Z,13.20
2018-11-05T07:12:13.058Z,13.10
2018-11-05T07:14:47.131Z,13.10
2018-11-05T07:17:21.281Z,13.20
2018-11-05T07:19:55.463Z,13.00
2018-11-05T07:22:29.444Z,12.80
2018-11-05T07:25:04.354Z,13.30
2018-11-05T07:27:39.182Z,13.40
2018-11-05T07:30:13.207Z,13.40
2018-11-05T07:32:47.149Z,13.60
2018-11-05T07:35:21.173Z,13.80
2018-11-05T07:37:55.211Z,13.40
2018-11-05T07:40:29.224Z,13.20
2018-11-05T07:43:03.265Z,13.00
2018-11-05T07:45:37.254Z,13.10
2018-11-05T07:48:11.358Z,13.30
2018-11-05T07:50:45.447Z,13.60
2018-11-05T07:53:19.485Z,13.70
2018-11-05T07:55:53.313Z,13.70
2018-11-05T07:58:27.309Z,13.70
2018-11-05T08:01:01.346Z,13.50
2018-11-05T08:03:36.181Z,13.30
2018-11-05T08:06:10.861Z,13.40
2018-11-05T08:08:44.793Z,13.30
2018-11-05T08:11:18.804Z,13.30
2018-11-05T08:13:52.796Z,13.20
2018-11-05T08:16:26.882Z,13.30
2018-11-05T08:19:00.698Z,13.30
2018-11-05T08:21:35.486Z,13.10
2018-11-05T08:24:09.381Z,13.10
2018-11-05T08:26:43.444Z,13.10
2018-11-05T08:29:17.401Z,13.20
2018-11-05T08:31:52.166Z,13.60
2018-11-05T08:34:26.320Z,13.50
2018-11-05T08:37:00.224Z,13.70
2018-11-05T08:39:34.341Z,13.70
2018-11-05T08:42:08.358Z,13.90
2018-11-05T08:44:42.197Z,13.90
2018-11-05T08:47:17.002Z,13.70
2018-11-05T08:49:50.878Z,13.70
2018-11-05T08:52:24.910Z,13.90
2018-11-05T08:54:58.926Z,13.60
2018-11-05T08:57:33.852Z,13.60
2018-11-05T09:00:08.481Z,13.70
2018-11-05T09:02:43.217Z,13.70
2018-11-05T09:05:17.209Z,13.70
2018-11-05T09:07:51.298Z,13.90
2018-11-05T09:10:26.334Z,14.10
2018-11-05T09:13:00.018Z,14.10
2018-11-05T09:15:34.078Z,14.30
2018-11-05T09:18:08.100Z,14.20
2018-11-05T09:20:42.183Z,14.60
2018-11-05T09:23:16.196Z,14.80
2018-11-05T09:25:50.204Z,14.90
2018-11-05T09:28:24.221Z,14.80
2018-11-05T09:30:58.981Z,15.00
2018-11-05T09:33:32.849Z,15.00
2018-11-05T09:36:06.830Z,15.00
2018-11-05T09:38:40.830Z,15.60
2018-11-05T09:41:15.682Z,15.60
2018-11-05T09:43:49.794Z,15.50
2018-11-05T09:46:23.893Z,15.10
2018-11-05T09:48:57.970Z,15.40
2018-11-05T09:51:32.098Z,15.40
2018-11-05T09:54:06.945Z,15.80
2018-11-05T09:56:41.062Z,15.80
2018-11-05T09:59:15.083Z,15.80
2018-11-05T10:01:49.109Z,16.20
2018-11-05T10:04:23.963Z,16.40
2018-11-05T10:06:57.925Z,16.40
2018-11-05T10:09:31.844Z,16.20
2018-11-05T10:12:05.830Z,15.70
2018-11-05T10:14:39.874Z,15.50
2018-11-05T10:17:13.976Z,15.60
2018-11-05T10:19:48.718Z,15.90
2018-11-05T10:22:23.530Z,16.00
2018-11-05T10:24:57.717Z,15.90
2018-11-05T10:27:31.677Z,15.70
2018-11-05T10:30:05.785Z,15.80
2018-11-05T10:32:40.627Z,15.80
2018-11-05T10:35:15.501Z,16.00
2018-11-05T10:37:49.576Z,16.00
2018-11-05T10:40:23.789Z,15.80
2018-11-05T10:42:58.512Z,16.00
2018-11-05T10:45:32.616Z,16.00
2018-11-05T10:48:06.724Z,15.90
2018-11-05T10:50:40.723Z,15.90
2018-11-05T10:53:14.726Z,15.90
2018-11-05T10:55:48.766Z,15.90
2018-11-05T10:58:22.810Z,15.60
2018-11-05T11:00:56.806Z,15.70
2018-11-05T11:03:31.734Z,15.20
2018-11-05T11:06:05.759Z,15.20
2018-11-05T11:08:39.772Z,15.20
2018-11-05T11:11:13.838Z,15.20
2018-11-05T11:13:47.838Z,15.40
2018-11-05T11:16:22.703Z,15.50
2018-11-05T11:18:56.781Z,15.50
2018-11-05T11:21:30.814Z,15.50
2018-11-05T11:24:04.790Z,15.30
2018-11-05T11:26:38.799Z,15.30
2018-11-05T11:29:13.047Z,15.20
2018-11-05T11:31:46.902Z,15.00
2018-11-05T11:34:21.798Z,15.50
2018-11-05T11:36:55.940Z,15.40
2018-11-05T11:39:29.904Z,15.90
2018-11-05T11:42:04.070Z,15.90
2018-11-05T11:44:38.954Z,16.50
2018-11-05T11:47:13.009Z,16.60
2018-11-05T11:49:46.995Z,16.30
2018-11-05T11:52:21.112Z,16.00
2018-11-05T11:54:55.069Z,16.00
2018-11-05T11:57:29.140Z,16.30
2018-11-05T12:00:03.259Z,16.20
2018-11-05T12:02:37.213Z,16.40
2018-11-05T12:05:12.177Z,16.60
2018-11-05T12:07:46.142Z,16.60
2018-11-05T12:10:20.829Z,16.40
2018-11-05T12:12:54.914Z,16.50
2018-11-05T12:15:28.934Z,16.50
2018-11-05T12:18:03.034Z,16.50
2018-11-05T12:20:37.077Z,16.40
2018-11-05T12:23:11.166Z,16.30
2018-11-05T12:25:45.327Z,16.20
2018-11-05T12:28:19.394Z,16.30
2018-11-05T12:30:53.445Z,16.50
2018-11-05T12:33:27.657Z,16.40
2018-11-05T12:36:01.766Z,16.70
2018-11-05T12:38:35.755Z,16.80
2018-11-05T12:41:09.892Z,16.70
2018-11-05T12:43:43.845Z,16.80
2018-11-05T12:46:18.624Z,16.50
2018-11-05T12:48:52.661Z,16.50
2018-11-05T12:51:26.621Z,16.50
2018-11-05T12:54:00.714Z,16.50
2018-11-05T12:56:34.621Z,16.40
2018-11-05T12:59:08.674Z,16.60
2018-11-05T13:01:42.773Z,17.10
2018-11-05T13:04:16.857Z,17.40
2018-11-05T13:06:50.903Z,17.70
2018-11-05T13:09:24.911Z,18.30
2018-11-05T13:12:00.039Z,18.90
2018-11-05T13:14:34.022Z,18.50
2018-11-05T13:17:08.081Z,18.40
2018-11-05T13:19:42.095Z,18.30
2018-11-05T13:22:16.302Z,18.20
2018-11-05T13:24:51.079Z,17.50
2018-11-05T13:27:24.926Z,17.50
2018-11-05T13:29:58.880Z,17.10
2018-11-05T13:32:32.839Z,16.80
2018-11-05T13:35:06.946Z,16.90
2018-11-05T13:37:41.344Z,16.90
2018-11-05T13:40:15.093Z,16.80
2018-11-05T13:42:49.200Z,16.80
2018-11-05T13:45:23.273Z,16.80
2018-11-05T13:47:57.913Z,16.70
2018-11-05T13:50:31.899Z,16.50
2018-11-05T13:53:05.631Z,16.30
2018-11-05T13:55:39.599Z,16.80
2018-11-05T13:58:14.521Z,17.00
2018-11-05T14:00:48.714Z,17.00
2018-11-05T14:03:22.657Z,16.90
2018-11-05T14:05:57.579Z,16.50
2018-11-05T14:08:31.741Z,16.50
2018-11-05T14:11:06.071Z,16.40
2018-11-05T14:13:40.009Z,16.40
2018-11-05T14:16:15.424Z,16.60
2018-11-05T14:18:49.407Z,16.50
2018-11-05T14:21:23.470Z,16.60
2018-11-05T14:23:57.624Z,16.50
2018-11-05T14:26:31.662Z,16.50
2018-11-05T14:29:06.596Z,16.80
2018-11-05T14:31:41.187Z,16.40
2018-11-05T14:34:16.098Z,16.40
2018-11-05T14:36:50.362Z,16.50
2018-11-05T14:39:24.069Z,16.30
2018-11-05T14:41:58.106Z,16.30
2018-11-05T14:44:32.098Z,16.30
2018-11-05T14:47:06.180Z,16.30
2018-11-05T14:49:40.946Z,16.20
2018-11-05T14:52:14.973Z,16.20
2018-11-05T14:54:48.945Z,16.10
2018-11-05T14:57:22.855Z,15.80
2018-11-05T14:59:57.727Z,15.60
2018-11-05T15:02:31.839Z,15.60
2018-11-05T15:05:06.031Z,15.50
2018-11-05T15:07:40.172Z,15.40
2018-11-05T15:10:14.055Z,15.40
2018-11-05T15:12:48.200Z,15.50
2018-11-05T15:15:24.208Z,15.50
2018-11-05T15:17:58.998Z,15.70
2018-11-05T15:20:32.974Z,15.70
2018-11-05T15:23:07.005Z,15.50
2018-11-05T15:25:43.866Z,15.60
2018-11-05T15:28:17.789Z,15.70
2018-11-05T15:30:51.841Z,15.70
2018-11-05T15:33:25.889Z,15.50
2018-11-05T15:35:59.995Z,15.40
2018-11-05T15:38:34.016Z,15.60
2018-11-05T15:41:08.654Z,15.60
2018-11-05T15:43:42.774Z,15.60
2018-11-05T15:46:17.536Z,15.70
2018-11-05T15:48:51.615Z,15.70
2018-11-05T15:51:26.693Z,15.80
2018-11-05T15:54:00.583Z,15.80
2018-11-05T15:56:34.426Z,15.80
2018-11-05T15:59:08.541Z,15.70
2018-11-05T16:01:42.614Z,15.70
2018-11-05T16:04:17.501Z,15.00
2018-11-05T16:06:51.571Z,15.00
2018-11-05T16:09:25.668Z,15.00
2018-11-05T16:11:59.694Z,15.10
2018-11-05T16:14:33.766Z,15.10
2018-11-05T16:17:07.794Z,15.10
2018-11-05T16:19:41.822Z,15.10
2018-11-05T16:22:15.797Z,15.10
2018-11-05T16:24:49.869Z,14.70
2018-11-05T16:27:23.975Z,14.80
2018-11-05T16:29:57.882Z,14.80
2018-11-05T16:32:31.950Z,14.50
2018-11-05T16:35:06.089Z,14.60
2018-11-05T16:37:40.143Z,14.70
2018-11-05T16:40:14.266Z,14.70
2018-11-05T16:42:48.484Z,14.50
2018-11-05T16:45:22.437Z,14.70
2018-11-05T16:47:56.518Z,14.60
2018-11-05T16:50:30.602Z,14.40
2018-11-05T16:53:04.607Z,14.60
2018-11-05T16:55:38.537Z,14.60
2018-11-05T16:58:12.645Z,14.50
2018-11-05T17:00:46.653Z,14.60
2018-11-05T17:03:20.784Z,14.60
2018-11-05T17:05:54.513Z,14.70
2018-11-05T17:08:28.499Z,14.60
2018-11-05T17:11:02.498Z,14.60
2018-11-05T17:13:36.580Z,14.50
2018-11-05T17:16:10.645Z,14.50
2018-11-05T17:18:44.646Z,14.60
2018-11-05T17:21:18.737Z,14.30
2018-11-05T17:23:52.936Z,14.00
2018-11-05T17:26:27.070Z,14.20
2018-11-05T17:29:10.797Z,14.20
2018-11-05T17:31:44.692Z,14.20
2018-11-05T17:34:18.671Z,14.20
2018-11-05T17:36:52.790Z,14.20
2018-11-05T17:39:27.034Z,14.00
2018-11-05T17:42:01.891Z,13.90
2018-11-05T17:44:36.913Z,13.80
2018-11-05T17:47:10.995Z,13.80
2018-11-05T17:49:45.846Z,13.70
2018-11-05T17:52:19.951Z,13.70
2018-11-05T17:54:54.046Z,13.60
2018-11-05T17:57:28.886Z,13.60
2018-11-05T18:00:03.777Z,13.50
2018-11-05T18:02:38.734Z,13.50
2018-11-05T18:05:12.798Z,13.50
2018-11-05T18:07:47.934Z,13.30
2018-11-05T18:10:22.031Z,13.30
2018-11-05T18:12:56.341Z,13.30
2018-11-05T18:15:30.507Z,13.20
2018-11-05T18:18:04.494Z,13.20
2018-11-05T18:20:39.044Z,13.10
2018-11-05T18:23:13.314Z,13.00
2018-11-05T18:25:47.438Z,13.10
2018-11-05T18:28:21.618Z,12.90
2018-11-05T18:30:55.661Z,13.00
2018-11-05T18:33:29.552Z,13.00
2018-11-05T18:36:03.759Z,12.90
2018-11-05T18:38:45.915Z,12.90
2018-11-05T18:41:20.828Z,12.90
2018-11-05T18:43:55.052Z,12.70
2018-11-05T18:46:29.547Z,12.60
2018-11-05T18:49:03.530Z,12.70
2018-11-05T18:51:39.192Z,12.60
2018-11-05T18:54:13.559Z,12.60
2018-11-05T18:56:47.940Z,12.70
2018-11-05T18:59:22.418Z,12.60
2018-11-05T19:01:57.274Z,12.60
2018-11-05T19:04:32.354Z,12.50
2018-11-05T19:07:06.515Z,12.50
2018-11-05T19:09:40.649Z,12.40
2018-11-05T19:12:14.897Z,12.40
2018-11-05T19:14:49.928Z,12.20
2018-11-05T19:17:23.825Z,12.20
2018-11-05T19:19:57.967Z,12.20
2018-11-05T19:22:32.175Z,12.20
2018-11-05T19:25:07.068Z,11.40
2018-11-05T19:27:42.287Z,11.60
2018-11-05T19:30:18.527Z,11.70
2018-11-05T19:32:53.210Z,11.90
2018-11-05T19:35:27.608Z,11.90
2018-11-05T19:38:02.032Z,12.00
2018-11-05T19:40:36.386Z,12.00
2018-11-05T19:43:11.361Z,12.00
2018-11-05T19:45:45.239Z,12.00
2018-11-05T19:48:19.435Z,11.90
2018-11-05T19:50:53.806Z,11.90
2018-11-05T19:53:27.971Z,11.90
2018-11-05T19:56:02.477Z,11.80
2018-11-05T19:58:36.587Z,11.70
2018-11-05T20:01:11.258Z,11.70
2018-11-05T20:03:45.408Z,11.60
2018-11-05T20:06:19.805Z,11.30
2018-11-05T20:08:54.526Z,11.60
2018-11-05T20:11:28.746Z,11.20
2018-11-05T20:14:02.706Z,11.40
2018-11-05T20:16:37.228Z,11.40
2018-11-05T20:19:11.403Z,11.00
2018-11-05T20:21:48.066Z,11.20
2018-11-05T20:24:23.279Z,11.20
2018-11-05T20:29:39.847Z,11.20
2018-11-05T20:32:14.572Z,11.20
2018-11-05T20:34:48.465Z,11.20
2018-11-05T20:37:22.892Z,10.90
2018-11-05T20:39:57.229Z,10.80
2018-11-05T20:42:31.421Z,10.70
2018-11-05T20:45:06.415Z,11.00
2018-11-05T20:47:40.874Z,11.00
2018-11-05T20:50:15.722Z,11.20
2018-11-05T20:52:49.965Z,10.90
2018-11-05T20:55:31.708Z,10.70
2018-11-05T20:58:06.190Z,10.70
2018-11-05T21:00:40.462Z,10.60
2018-11-05T21:03:15.520Z,10.60
2018-11-05T21:05:49.770Z,10.80
2018-11-05T21:08:23.969Z,10.80
2018-11-05T21:10:58.066Z,10.70
2018-11-05T21:13:32.895Z,10.80
2018-11-05T21:16:06.974Z,10.80
2018-11-05T21:18:41.894Z,10.70
2018-11-05T21:21:16.116Z,10.70
2018-11-05T21:23:50.288Z,10.70
2018-11-05T21:26:24.475Z,10.70
2018-11-05T21:28:58.585Z,10.70
2018-11-05T21:31:32.816Z,10.80
2018-11-05T21:34:06.847Z,10.60
2018-11-05T21:36:41.062Z,10.50
2018-11-05T21:39:15.301Z,10.40
2018-11-05T21:41:49.663Z,10.20
2018-11-05T21:44:24.476Z,10.50
2018-11-05T21:46:58.862Z,10.50
2018-11-05T21:49:32.997Z,10.50
2018-11-05T21:52:07.034Z,10.60
2018-11-05T21:54:41.392Z,10.60
2018-11-05T21:57:16.472Z,10.30
2018-11-05T21:59:51.338Z,10.30
2018-11-05T22:02:26.186Z,10.40
2018-11-05T22:05:00.491Z,10.40
2018-11-05T22:07:34.895Z,10.50
2018-11-05T22:10:09.322Z,10.50
2018-11-05T22:12:43.395Z,10.40
2018-11-05T22:15:17.997Z,10.40
2018-11-05T22:17:52.217Z,10.30
2018-11-05T22:20:26.812Z,10.40
2018-11-05T22:23:00.789Z,10.50
2018-11-05T22:25:34.854Z,10.50
2018-11-05T22:28:08.991Z,10.50
2018-11-05T22:30:42.927Z,10.40
2018-11-05T22:33:17.054Z,10.00
2018-11-05T22:35:51.019Z,9.70
2018-11-05T22:38:25.039Z,9.40
2018-11-05T22:40:59.158Z,9.30
2018-11-05T22:43:33.354Z,9.50
2018-11-05T22:46:07.537Z,9.50
2018-11-05T22:48:41.504Z,9.40
2018-11-05T22:51:15.837Z,9.70
2018-11-05T22:53:50.074Z,9.90
2018-11-05T22:56:25.015Z,10.00
2018-11-05T22:59:04.599Z,10.00
2018-11-05T23:01:39.481Z,10.10
2018-11-05T23:04:14.014Z,10.10
2018-11-05T23:06:48.201Z,10.20
2018-11-05T23:09:22.480Z,10.10
2018-11-05T23:11:56.730Z,10.00
2018-11-05T23:14:31.476Z,10.00
2018-11-05T23:17:05.791Z,10.00
2018-11-05T23:19:39.883Z,10.00
2018-11-05T23:22:14.797Z,10.00
2018-11-05T23:24:49.118Z,10.00
2018-11-05T23:27:23.437Z,10.00
2018-11-05T23:29:58.175Z,9.80
2018-11-05T23:32:32.310Z,9.80
2018-11-05T23:35:06.658Z,9.90
2018-11-05T23:37:41.497Z,9.80
2018-11-05T23:40:15.430Z,9.80
2018-11-05T23:42:49.809Z,9.70
2018-11-05T23:45:24.839Z,9.60
2018-11-05T23:47:59.200Z,9.60
2018-11-05T23:50:33.457Z,9.70
2018-11-05T23:53:07.720Z,9.60
2018-11-05T23:55:41.795Z,9.60
2018-11-05T23:58:16.038Z,9.70
